Time;durP1;ratioP1;P1;durP2;ratioP2;P2;SDS_P1;SDS_P2;PMS_P1;PMS_P2;Temp;Humidity;BMP_temperature;BMP_pressure;BME280_temperature;BME280_humidity;BME280_pressure;Samples;Min_cycle;Max_cycle;Signal;HPM_P1;HPM_P2
2022/11/20 00:01:30;;;;;;;33.90;18.83;;;1.40;99.90;;;;;;5009876;28;20054;-71
2022/11/20 00:03:59;;;;;;;33.38;18.83;;;1.40;99.90;;;;;;5025069;28;20072;-70
2022/11/20 00:06:28;;;;;;;36.92;18.92;;;1.40;99.90;;;;;;5004577;28;20046;-70
2022/11/20 00:08:57;;;;;;;35.03;19.92;;;1.40;99.90;;;;;;5020155;28;20056;-70
2022/11/20 00:11:27;;;;;;;32.75;18.63;;;1.40;99.90;;;;;;5026319;28;20056;-70
2022/11/20 00:13:57;;;;;;;38.08;19.90;;;1.40;99.90;;;;;;5022934;28;20447;-70
2022/11/20 00:16:26;;;;;;;35.80;18.92;;;1.40;99.90;;;;;;5000891;28;20144;-69
2022/11/20 00:18:54;;;;;;;34.63;19.48;;;1.40;99.90;;;;;;5024022;28;20698;-70
2022/11/20 00:21:24;;;;;;;33.08;18.20;;;1.40;99.90;;;;;;5018013;28;20060;-70
2022/11/20 00:23:53;;;;;;;35.88;19.13;;;1.40;99.90;;;;;;5021300;28;20033;-69
2022/11/20 00:26:23;;;;;;;35.45;19.33;;;1.40;99.90;;;;;;5023939;28;20060;-70
2022/11/20 00:29:01;;;;;;;33.55;18.85;;;1.40;99.90;;;;;;5010479;28;20132;-70
2022/11/20 00:31:29;;;;;;;35.20;19.10;;;1.40;99.90;;;;;;5027787;28;20558;-70
2022/11/20 00:33:57;;;;;;;32.63;18.33;;;1.40;99.90;;;;;;4988956;28;20052;-70
2022/11/20 00:36:26;;;;;;;35.25;19.20;;;1.40;99.90;;;;;;5013400;28;20049;-70
2022/11/20 00:38:56;;;;;;;33.83;19.23;;;1.40;99.90;;;;;;4990818;28;20049;-70
2022/11/20 00:41:24;;;;;;;38.95;20.73;;;1.50;99.90;;;;;;5010712;28;20049;-69
2022/11/20 00:43:53;;;;;;;38.92;20.77;;;1.50;99.90;;;;;;5024651;28;20526;-69
2022/11/20 00:46:23;;;;;;;33.83;19.17;;;1.60;99.90;;;;;;5011286;28;20496;-69
2022/11/20 00:48:50;;;;;;;36.90;20.50;;;1.60;99.90;;;;;;5022747;28;20076;-69
2022/11/20 00:51:20;;;;;;;36.65;19.17;;;1.70;99.90;;;;;;5020613;28;20141;-69
2022/11/20 00:53:48;;;;;;;38.55;19.98;;;1.70;99.90;;;;;;5014513;28;20073;-69
2022/11/20 00:56:17;;;;;;;36.33;19.95;;;1.70;99.90;;;;;;5021543;28;20052;-69
2022/11/20 00:58:46;;;;;;;38.60;20.48;;;1.70;99.90;;;;;;5015161;28;20042;-70
2022/11/20 01:01:19;;;;;;;36.75;20.05;;;1.70;99.90;;;;;;4998766;28;20045;-70
2022/11/20 01:03:49;;;;;;;37.83;19.80;;;1.70;99.90;;;;;;5019352;28;20492;-70
2022/11/20 01:06:22;;;;;;;34.47;19.55;;;1.80;99.90;;;;;;5028973;28;20507;-69
2022/11/20 01:08:50;;;;;;;37.97;18.58;;;1.80;99.90;;;;;;5008042;28;20065;-69
2022/11/20 01:11:22;;;;;;;37.47;20.38;;;1.80;99.90;;;;;;5008078;28;20040;-69
2022/11/20 01:13:51;;;;;;;;;;;1.80;99.90;;;;;;5022910;28;20038;-70
2022/11/20 01:16:27;;;;;;;42.28;22.88;;;1.90;99.90;;;;;;5025130;28;19935;-68
2022/11/20 01:18:57;;;;;;;37.80;21.55;;;1.90;99.90;;;;;;5025217;28;20121;-69
2022/11/20 01:21:36;;;;;;;39.03;19.98;;;1.80;99.90;;;;;;5023622;28;20496;-69
2022/11/20 01:24:07;;;;;;;40.15;21.13;;;1.80;99.90;;;;;;5028252;28;20500;-69
2022/11/20 01:26:37;;;;;;;43.67;22.33;;;1.80;99.90;;;;;;5008800;28;20137;-69
2022/11/20 01:29:06;;;;;;;40.30;21.20;;;1.80;99.90;;;;;;5011808;28;20157;-69
2022/11/20 01:31:36;;;;;;;36.83;20.15;;;1.80;99.90;;;;;;4999161;28;20046;-69
2022/11/20 01:34:10;;;;;;;42.13;21.52;;;1.90;99.90;;;;;;5011489;28;20041;-69
2022/11/20 01:36:38;;;;;;;42.00;21.33;;;1.80;99.90;;;;;;4997766;28;20065;-69
2022/11/20 01:39:19;;;;;;;40.28;20.30;;;1.90;99.90;;;;;;5021508;28;20453;-69
2022/11/20 01:44:48;;;;;;;40.67;20.77;;;1.90;99.90;;;;;;5013637;28;20057;-70
2022/11/20 01:47:44;;;;;;;39.33;21.02;;;2.00;99.90;;;;;;5004777;28;20065;-68
2022/11/20 01:50:14;;;;;;;39.35;22.13;;;2.00;99.90;;;;;;5015600;28;20323;-69
2022/11/20 01:52:49;;;;;;;39.00;20.95;;;2.00;99.90;;;;;;5027752;28;20041;-68
2022/11/20 01:55:26;;;;;;;37.78;21.83;;;2.00;99.90;;;;;;5022212;28;20412;-68
2022/11/20 01:57:55;;;;;;;38.25;20.23;;;1.90;99.90;;;;;;5027102;28;20571;-70
2022/11/20 02:00:23;;;;;;;37.00;20.48;;;1.90;99.90;;;;;;5021395;28;20073;-71
2022/11/20 02:03:26;;;;;;;39.10;20.92;;;1.80;99.90;;;;;;5025237;28;20048;-68
2022/11/20 02:06:06;;;;;;;39.75;21.08;;;1.90;99.90;;;;;;4989557;28;20181;-69
2022/11/20 02:08:35;;;;;;;40.13;21.05;;;1.90;99.90;;;;;;4993750;28;20159;-70
2022/11/20 02:11:02;;;;;;;37.35;19.70;;;1.90;99.90;;;;;;4992394;28;20050;-69
2022/11/20 02:13:44;;;;;;;42.42;22.33;;;1.90;99.90;;;;;;5025912;28;20069;-69
2022/11/20 02:16:19;;;;;;;40.10;21.00;;;1.90;99.90;;;;;;4993426;28;20052;-69
2022/11/20 02:18:47;;;;;;;38.30;20.40;;;1.90;99.90;;;;;;4980776;28;20046;-69
2022/11/20 02:21:29;;;;;;;43.10;22.40;;;1.90;99.90;;;;;;5008854;28;20364;-68
2022/11/20 02:23:57;;;;;;;38.08;20.10;;;1.90;99.90;;;;;;5012616;28;20066;-69
2022/11/20 02:26:27;;;;;;;38.72;20.67;;;1.90;99.90;;;;;;5005985;28;20052;-68
2022/11/20 02:28:55;;;;;;;37.78;20.65;;;1.90;99.90;;;;;;5020810;28;20050;-69
2022/11/20 02:31:22;;;;;;;42.05;21.10;;;1.90;99.90;;;;;;5030820;28;20045;-69
2022/11/20 02:33:55;;;;;;;41.90;21.05;;;1.90;99.90;;;;;;5011134;28;20139;-69
2022/11/20 02:36:26;;;;;;;38.42;20.58;;;1.80;99.90;;;;;;5011129;28;20049;-69
2022/11/20 02:38:53;;;;;;;39.28;20.13;;;1.80;99.90;;;;;;5020719;28;20041;-70
2022/11/20 02:41:21;;;;;;;41.58;20.60;;;1.80;99.90;;;;;;5029856;28;20038;-68
2022/11/20 02:43:49;;;;;;;38.35;20.90;;;1.80;99.90;;;;;;4999336;28;20072;-69
2022/11/20 02:46:16;;;;;;;39.47;21.10;;;1.70;99.90;;;;;;5005671;28;20455;-68
2022/11/20 02:48:43;;;;;;;38.78;20.73;;;1.70;99.90;;;;;;5025593;28;20037;-69
2022/11/20 02:51:10;;;;;;;40.30;20.55;;;1.70;99.90;;;;;;5010020;28;20557;-69
2022/11/20 02:53:38;;;;;;;38.92;21.05;;;1.70;99.90;;;;;;5026463;28;20561;-68
2022/11/20 02:56:06;;;;;;;39.55;20.52;;;1.80;99.90;;;;;;5030509;28;20069;-69
2022/11/20 02:58:33;;;;;;;37.20;20.35;;;1.80;99.90;;;;;;5030291;28;20048;-69
2022/11/20 03:01:00;;;;;;;37.83;20.50;;;1.80;99.90;;;;;;5030077;28;20503;-69
2022/11/20 03:03:27;;;;;;;38.45;20.95;;;1.80;99.90;;;;;;5031029;28;20041;-69
2022/11/20 03:05:55;;;;;;;43.60;22.40;;;1.80;99.90;;;;;;5025949;28;20037;-69
2022/11/20 03:08:22;;;;;;;42.60;21.10;;;1.70;99.90;;;;;;5020375;28;20500;-69
2022/11/20 03:10:49;;;;;;;41.97;21.85;;;1.70;99.90;;;;;;5029500;28;20471;-69
2022/11/20 03:13:17;;;;;;;39.95;21.38;;;1.70;99.90;;;;;;5030402;28;20053;-69
2022/11/20 03:15:44;;;;;;;40.42;21.45;;;1.80;99.90;;;;;;5005929;28;20477;-70
2022/11/20 03:18:13;;;;;;;45.10;22.80;;;1.80;99.90;;;;;;5030571;28;20456;-69
2022/11/20 03:20:40;;;;;;;41.38;21.38;;;1.80;99.90;;;;;;5011468;28;20045;-69
2022/11/20 03:23:07;;;;;;;41.00;21.42;;;1.90;99.90;;;;;;5010503;28;20046;-69
2022/11/20 03:25:35;;;;;;;43.97;22.42;;;1.80;99.90;;;;;;5022933;28;20053;-69
2022/11/20 03:28:02;;;;;;;43.00;20.88;;;1.80;99.90;;;;;;5028752;28;20045;-69
2022/11/20 03:30:30;;;;;;;39.40;20.40;;;1.80;99.90;;;;;;5006230;28;20546;-71
2022/11/20 03:32:57;;;;;;;42.20;21.05;;;1.80;99.90;;;;;;5023495;28;20040;-70
2022/11/20 03:35:25;;;;;;;43.90;21.13;;;1.80;99.90;;;;;;5015397;28;20038;-69
2022/11/20 03:37:52;;;;;;;44.13;21.80;;;1.80;99.90;;;;;;5025060;28;20133;-70
2022/11/20 03:40:20;;;;;;;40.47;21.02;;;1.80;99.90;;;;;;5028769;28;20077;-69
2022/11/20 03:42:47;;;;;;;37.17;20.48;;;1.80;99.90;;;;;;5030063;28;20048;-70
2022/11/20 03:45:18;;;;;;;43.40;21.80;;;1.70;99.90;;;;;;5011071;28;20062;-69
2022/11/20 03:47:46;;;;;;;42.27;21.40;;;1.70;99.90;;;;;;5009579;28;20052;-69
2022/11/20 03:50:14;;;;;;;44.08;22.58;;;1.60;99.90;;;;;;5010017;28;20054;-69
2022/11/20 03:52:42;;;;;;;44.95;21.92;;;1.70;99.90;;;;;;5026722;28;20152;-69
2022/11/20 03:55:09;;;;;;;40.55;21.30;;;1.70;99.90;;;;;;5020945;28;20400;-70
2022/11/20 03:57:37;;;;;;;42.95;21.00;;;1.70;99.90;;;;;;5008225;28;20046;-69
2022/11/20 04:00:05;;;;;;;45.17;22.10;;;1.70;99.90;;;;;;5014965;28;20037;-70
2022/11/20 04:02:32;;;;;;;41.75;21.63;;;1.70;99.90;;;;;;5015987;28;20061;-69
2022/11/20 04:04:59;;;;;;;39.55;20.90;;;1.60;99.90;;;;;;5027609;28;20199;-69
2022/11/20 04:07:27;;;;;;;40.40;20.65;;;1.70;99.90;;;;;;5025110;28;20285;-70
2022/11/20 04:09:54;;;;;;;37.40;20.15;;;1.60;99.90;;;;;;5008306;28;20038;-71
2022/11/20 04:12:21;;;;;;;40.55;20.17;;;1.70;99.90;;;;;;5022143;28;20067;-69
2022/11/20 04:14:49;;;;;;;41.83;21.58;;;1.70;99.90;;;;;;4992695;28;20046;-70
2022/11/20 04:17:16;;;;;;;43.40;21.60;;;1.70;99.90;;;;;;5005708;28;20527;-70
2022/11/20 04:19:43;;;;;;;39.75;20.13;;;1.70;99.90;;;;;;5025472;28;20057;-70
2022/11/20 04:22:12;;;;;;;40.45;20.88;;;1.70;99.90;;;;;;5023749;28;20076;-69
2022/11/20 04:24:39;;;;;;;38.03;19.73;;;1.70;99.90;;;;;;5008986;28;20045;-70
2022/11/20 04:27:06;;;;;;;37.00;19.35;;;1.70;99.90;;;;;;5024766;28;20180;-70
2022/11/20 04:29:34;;;;;;;35.15;19.75;;;1.70;99.90;;;;;;5006790;28;20262;-69
2022/11/20 04:32:01;;;;;;;36.17;19.65;;;1.70;99.90;;;;;;5029735;28;20375;-70
2022/11/20 04:34:28;;;;;;;39.33;19.83;;;1.80;99.90;;;;;;5015091;28;20037;-69
2022/11/20 04:36:57;;;;;;;41.38;20.50;;;1.80;99.90;;;;;;5013254;28;20596;-70
2022/11/20 04:39:24;;;;;;;40.72;22.33;;;1.80;99.90;;;;;;5010941;28;20046;-69
2022/11/20 04:42:28;;;;;;;43.00;21.95;;;1.80;99.90;;;;;;5009463;28;20053;-70
2022/11/20 04:44:39;;;;;;;37.90;19.60;;;1.90;99.90;;;;;;5010145;28;20050;-70
2022/11/20 04:47:06;;;;;;;38.03;18.95;;;1.90;99.90;;;;;;5014480;28;20048;-70
2022/11/20 04:49:33;;;;;;;37.17;19.42;;;1.90;99.90;;;;;;5024089;28;20075;-70
2022/11/20 04:52:01;;;;;;;35.22;18.58;;;1.80;99.90;;;;;;4978979;28;20145;-70
2022/11/20 04:54:28;;;;;;;34.60;18.55;;;1.80;99.90;;;;;;5030047;28;20368;-70
2022/11/20 04:56:55;;;;;;;32.40;17.67;;;1.80;99.90;;;;;;5024949;28;20049;-70
2022/11/20 04:59:23;;;;;;;33.75;17.00;;;1.90;99.90;;;;;;5017060;28;20045;-70
2022/11/20 05:01:50;;;;;;;37.53;18.45;;;1.90;99.90;;;;;;5028070;28;20114;-70
2022/11/20 05:04:19;;;;;;;33.83;17.80;;;2.00;99.90;;;;;;5028855;28;20051;-69
2022/11/20 05:06:47;;;;;;;34.85;18.95;;;2.00;99.90;;;;;;5000746;28;20046;-70
2022/11/20 05:09:14;;;;;;;33.03;17.73;;;1.90;99.90;;;;;;4996741;28;20508;-70
2022/11/20 05:11:41;;;;;;;35.33;18.13;;;1.90;99.90;;;;;;5008186;28;20042;-70
2022/11/20 05:14:08;;;;;;;31.50;16.77;;;2.00;99.90;;;;;;5025289;28;20089;-70
2022/11/20 05:16:36;;;;;;;36.35;17.30;;;1.90;99.90;;;;;;5016316;28;20389;-70
2022/11/20 05:19:04;;;;;;;30.60;17.10;;;1.90;99.90;;;;;;5020129;28;20559;-70
2022/11/20 05:21:32;;;;;;;34.50;17.92;;;1.90;99.90;;;;;;5006377;28;20583;-70
2022/11/20 05:23:59;;;;;;;35.03;17.80;;;1.90;99.90;;;;;;5019481;28;20328;-70
2022/11/20 05:26:27;;;;;;;32.70;17.70;;;2.00;99.90;;;;;;5013379;28;20520;-70
2022/11/20 05:28:54;;;;;;;34.63;17.33;;;2.00;99.90;;;;;;5019855;28;20616;-70
2022/11/20 05:31:23;;;;;;;29.98;16.27;;;2.00;99.90;;;;;;5025923;28;20048;-70
2022/11/20 05:33:55;;;;;;;34.30;18.23;;;2.00;99.90;;;;;;5010448;28;20574;-70
2022/11/20 05:36:23;;;;;;;32.38;17.23;;;2.00;99.90;;;;;;5010045;28;20049;-70
2022/11/20 05:38:50;;;;;;;34.72;17.35;;;2.00;99.90;;;;;;5011040;28;20041;-70
2022/11/20 05:41:24;;;;;;;33.33;17.90;;;2.00;99.90;;;;;;5023483;28;20045;-69
2022/11/20 05:43:52;;;;;;;33.63;17.52;;;2.10;99.90;;;;;;5006987;28;20076;-70
2022/11/20 05:46:20;;;;;;;33.63;17.20;;;2.10;99.90;;;;;;5004348;28;20049;-70
2022/11/20 05:48:56;;;;;;;32.17;16.38;;;2.00;99.90;;;;;;5019201;28;20132;-70
2022/11/20 05:51:23;;;;;;;31.42;16.05;;;2.00;99.90;;;;;;5016041;28;20458;-70
2022/11/20 05:53:50;;;;;;;33.70;16.85;;;2.00;99.90;;;;;;5012228;28;20057;-70
2022/11/20 05:56:20;;;;;;;33.97;18.25;;;2.00;99.90;;;;;;5010724;28;20433;-70
2022/11/20 05:58:48;;;;;;;34.72;17.73;;;2.10;99.90;;;;;;5017249;28;20038;-70
2022/11/20 06:01:35;;;;;;;34.83;18.42;;;2.00;99.90;;;;;;5027519;28;20389;-71
2022/11/20 06:04:03;;;;;;;31.00;16.52;;;2.00;99.90;;;;;;5012536;28;20155;-71
2022/11/20 06:06:30;;;;;;;32.25;15.60;;;2.10;99.90;;;;;;5008350;28;20465;-70
2022/11/20 06:08:58;;;;;;;33.03;17.38;;;2.10;99.90;;;;;;5025207;28;20139;-70
2022/11/20 06:11:26;;;;;;;30.27;16.75;;;2.10;99.90;;;;;;5013181;28;20068;-70
2022/11/20 06:13:53;;;;;;;27.90;15.75;;;2.20;99.90;;;;;;5031380;28;20554;-70
2022/11/20 06:16:21;;;;;;;27.00;14.48;;;2.20;99.90;;;;;;5023759;28;20052;-70
2022/11/20 06:18:49;;;;;;;29.27;15.18;;;2.20;99.90;;;;;;5003254;28;20524;-71
2022/11/20 06:21:21;;;;;;;29.88;15.55;;;2.30;99.90;;;;;;5022577;28;20525;-70
2022/11/20 06:23:48;;;;;;;;;;;2.30;99.90;;;;;;5014137;28;20057;-70
2022/11/20 06:26:22;;;;;;;27.58;13.73;;;2.30;99.90;;;;;;5017053;28;19962;-70
2022/11/20 06:28:51;;;;;;;28.65;15.07;;;2.30;99.90;;;;;;5030948;28;20053;-70
2022/11/20 06:31:21;;;;;;;28.20;14.80;;;2.30;99.90;;;;;;5012956;28;20045;-70
2022/11/20 06:33:48;;;;;;;27.42;14.95;;;2.30;99.90;;;;;;5024028;28;20408;-70
2022/11/20 06:36:18;;;;;;;27.70;14.93;;;2.30;99.90;;;;;;5017323;28;20100;-70
2022/11/20 06:38:46;;;;;;;25.73;14.15;;;2.30;99.90;;;;;;5015865;28;20124;-70
2022/11/20 06:41:19;;;;;;;26.70;14.43;;;2.20;99.90;;;;;;5018125;28;20078;-70
2022/11/20 06:43:47;;;;;;;26.13;13.82;;;2.20;99.90;;;;;;5007856;28;20049;-70
2022/11/20 06:46:19;;;;;;;26.95;14.98;;;2.30;99.90;;;;;;5029357;28;20041;-70
2022/11/20 06:48:48;;;;;;;23.33;14.10;;;2.30;99.90;;;;;;5011358;28;20053;-70
2022/11/20 06:51:16;;;;;;;27.08;14.63;;;2.40;99.90;;;;;;5008656;28;20124;-70
2022/11/20 06:53:43;;;;;;;28.35;14.55;;;2.30;99.90;;;;;;5017915;28;20044;-70
2022/11/20 06:56:11;;;;;;;28.20;15.35;;;2.30;99.90;;;;;;5010976;28;20049;-70
2022/11/20 06:58:38;;;;;;;29.23;15.02;;;2.30;99.90;;;;;;5021942;28;20049;-71
2022/11/20 07:01:11;;;;;;;30.50;15.85;;;2.30;99.90;;;;;;5021612;28;20056;-69
2022/11/20 07:03:39;;;;;;;27.30;14.38;;;2.30;99.90;;;;;;5019096;28;20061;-68
2022/11/20 07:06:06;;;;;;;26.67;14.70;;;2.40;99.90;;;;;;5029178;28;20115;-70
2022/11/20 07:08:34;;;;;;;28.98;15.48;;;2.40;99.90;;;;;;5025729;28;20524;-70
2022/11/20 07:11:05;;;;;;;28.88;16.05;;;2.40;99.90;;;;;;5025879;28;20045;-70
2022/11/20 07:13:32;;;;;;;39.95;21.30;;;2.40;99.90;;;;;;5011764;28;20202;-70
2022/11/20 07:16:02;;;;;;;32.10;17.10;;;2.40;99.90;;;;;;5031182;28;20056;-70
2022/11/20 07:18:29;;;;;;;29.92;16.90;;;2.50;99.90;;;;;;5024565;28;20348;-70
2022/11/20 07:21:03;;;;;;;28.88;15.60;;;2.50;99.90;;;;;;5010540;28;20056;-70
2022/11/20 07:23:31;;;;;;;26.05;14.30;;;2.60;99.90;;;;;;5028209;28;20057;-71
2022/11/20 07:26:02;;;;;;;23.67;13.15;;;2.60;99.90;;;;;;5028023;28;20056;-70
2022/11/20 07:28:29;;;;;;;25.00;14.25;;;2.70;99.90;;;;;;5017904;28;20526;-70
2022/11/20 07:30:57;;;;;;;25.10;13.90;;;2.70;99.90;;;;;;5022455;28;20179;-70
2022/11/20 07:33:24;;;;;;;33.78;17.98;;;2.70;99.90;;;;;;5020370;28;20140;-70
2022/11/20 07:35:51;;;;;;;26.50;13.98;;;2.60;99.90;;;;;;5024466;28;20083;-70
2022/11/20 07:38:19;;;;;;;27.40;14.30;;;2.70;99.90;;;;;;5016864;28;20527;-71
2022/11/20 07:40:46;;;;;;;24.23;13.77;;;2.70;99.90;;;;;;5023796;28;20046;-70
2022/11/20 07:43:13;;;;;;;25.70;13.18;;;2.70;99.90;;;;;;5014042;28;20412;-70
2022/11/20 07:45:41;;;;;;;25.33;13.23;;;2.70;99.90;;;;;;5015692;28;20073;-71
2022/11/20 07:48:09;;;;;;;25.10;13.43;;;2.80;99.90;;;;;;5019940;28;20140;-70
2022/11/20 07:50:36;;;;;;;23.85;13.25;;;2.90;99.90;;;;;;5017916;28;20511;-69
2022/11/20 07:53:07;;;;;;;25.63;14.48;;;2.90;99.90;;;;;;5029978;28;20467;-70
2022/11/20 07:55:34;;;;;;;25.05;13.90;;;3.00;99.90;;;;;;5009507;28;20081;-70
2022/11/20 07:58:02;;;;;;;26.13;13.95;;;3.10;99.90;;;;;;5020887;28;20064;-70
2022/11/20 08:00:29;;;;;;;24.95;12.90;;;3.10;99.90;;;;;;5008444;28;20077;-70
2022/11/20 08:02:56;;;;;;;23.50;12.70;;;3.20;99.90;;;;;;4992724;28;20061;-70
2022/11/20 08:05:24;;;;;;;26.65;13.05;;;3.20;99.90;;;;;;5023087;28;20411;-70
2022/11/20 08:07:51;;;;;;;24.10;12.50;;;3.30;99.90;;;;;;5026414;28;20163;-70
2022/11/20 08:10:18;;;;;;;24.02;12.68;;;3.30;99.90;;;;;;5027540;28;20143;-70
2022/11/20 08:15:34;;;;;;;23.80;13.80;;;3.30;99.90;;;;;;5019170;28;20454;-69
2022/11/20 08:18:10;;;;;;;24.20;13.20;;;3.30;99.90;;;;;;5008076;28;20084;-69
2022/11/20 08:21:01;;;;;;;22.55;12.35;;;3.30;99.90;;;;;;5016120;28;20045;-70
2022/11/20 08:23:28;;;;;;;28.08;14.27;;;3.30;99.90;;;;;;5025947;28;20056;-69
2022/11/20 08:25:55;;;;;;;23.67;13.38;;;3.30;99.90;;;;;;5012528;28;20092;-69
2022/11/20 08:28:23;;;;;;;23.85;13.60;;;3.40;99.90;;;;;;5025273;28;20095;-70
2022/11/20 08:30:50;;;;;;;24.35;13.98;;;3.40;99.90;;;;;;5024059;28;20049;-70
2022/11/20 08:33:18;;;;;;;23.30;13.80;;;3.40;99.90;;;;;;5026204;28;20069;-69
2022/11/20 08:35:45;;;;;;;24.42;14.50;;;3.50;99.90;;;;;;5023898;28;20033;-69
2022/11/20 08:38:13;;;;;;;26.80;14.43;;;3.50;99.90;;;;;;5018507;28;20452;-69
2022/11/20 08:40:40;;;;;;;21.98;13.27;;;3.50;99.90;;;;;;5008101;28;20044;-69
2022/11/20 08:43:07;;;;;;;27.70;15.00;;;3.60;99.90;;;;;;5003217;28;20046;-69
2022/11/20 08:45:34;;;;;;;26.50;15.55;;;3.60;99.90;;;;;;5019782;28;20152;-69
2022/11/20 08:48:03;;;;;;;27.17;14.55;;;3.70;99.90;;;;;;4992158;28;20075;-69
2022/11/20 08:50:32;;;;;;;26.33;14.70;;;3.80;99.90;;;;;;4999125;28;20507;-69
2022/11/20 08:53:06;;;;;;;24.50;14.88;;;3.80;99.90;;;;;;5008201;28;20509;-70
2022/11/20 08:55:35;;;;;;;25.27;13.98;;;3.80;99.90;;;;;;5026420;28;20457;-70
2022/11/20 08:58:07;;;;;;;25.00;14.50;;;3.80;99.90;;;;;;5000154;28;20054;-70
2022/11/20 09:00:34;;;;;;;24.20;14.00;;;3.80;99.90;;;;;;5017579;28;20060;-70
2022/11/20 09:03:02;;;;;;;23.63;13.93;;;3.80;99.90;;;;;;4995108;28;20092;-70
2022/11/20 09:05:29;;;;;;;26.60;14.77;;;3.80;99.90;;;;;;5023258;28;20049;-70
2022/11/20 09:07:58;;;;;;;25.52;14.70;;;3.80;99.90;;;;;;5026812;28;20086;-70
2022/11/20 09:10:26;;;;;;;23.27;14.40;;;3.80;99.90;;;;;;5012477;28;20052;-70
2022/11/20 09:12:57;;;;;;;24.05;13.30;;;3.80;99.90;;;;;;4992439;28;20064;-70
2022/11/20 09:15:25;;;;;;;23.63;14.03;;;3.90;99.90;;;;;;5001429;28;20079;-70
2022/11/20 09:17:54;;;;;;;24.92;14.40;;;3.80;99.90;;;;;;5007056;28;20302;-70
2022/11/20 09:20:22;;;;;;;25.08;14.50;;;3.90;99.90;;;;;;5016578;28;20527;-70
2022/11/20 09:22:50;;;;;;;25.13;15.05;;;3.90;99.90;;;;;;5001269;28;20064;-70
2022/11/20 09:25:18;;;;;;;26.90;14.65;;;3.90;99.90;;;;;;5022500;28;20570;-70
2022/11/20 09:27:45;;;;;;;27.77;14.07;;;4.00;99.90;;;;;;5026467;28;20479;-70
2022/11/20 09:30:15;;;;;;;26.10;14.35;;;4.00;99.90;;;;;;5015931;28;20046;-70
2022/11/20 09:32:43;;;;;;;24.33;13.85;;;4.00;99.90;;;;;;5012685;28;20050;-70
2022/11/20 09:35:10;;;;;;;19.73;12.63;;;4.00;99.90;;;;;;5024893;28;20112;-70
2022/11/20 09:37:38;;;;;;;28.88;15.98;;;4.10;99.90;;;;;;5020667;28;20423;-70
2022/11/20 09:40:06;;;;;;;28.48;16.45;;;4.20;99.90;;;;;;5019784;28;20073;-70
2022/11/20 09:42:33;;;;;;;27.73;16.20;;;4.40;99.90;;;;;;4998207;28;20395;-70
2022/11/20 09:45:42;;;;;;;26.67;15.35;;;4.40;99.90;;;;;;5002531;28;20874;-70
2022/11/20 09:48:12;;;;;;;23.60;14.02;;;4.40;99.90;;;;;;5008439;28;20046;-70
2022/11/20 09:51:16;;;;;;;26.02;15.25;;;4.40;99.90;;;;;;5018294;28;20045;-70
2022/11/20 09:54:00;;;;;;;24.63;14.38;;;4.50;99.90;;;;;;5025938;28;20478;-73
2022/11/20 09:56:28;;;;;;;24.63;14.90;;;4.50;99.90;;;;;;5027405;28;20060;-71
2022/11/20 09:59:05;;;;;;;25.20;14.43;;;4.50;99.90;;;;;;5024661;28;20045;-69
2022/11/20 10:01:40;;;;;;;29.08;14.15;;;4.60;99.90;;;;;;5024760;28;20037;-69
2022/11/20 10:04:17;;;;;;;26.52;14.48;;;4.60;99.90;;;;;;5014173;28;20068;-70
2022/11/20 10:07:10;;;;;;;25.15;13.98;;;4.60;99.90;;;;;;5028563;28;20512;-69
2022/11/20 10:09:58;;;;;;;22.10;13.95;;;4.60;99.90;;;;;;5034771;28;20498;-70
2022/11/20 10:12:28;;;;;;;24.60;13.95;;;4.70;99.90;;;;;;5013439;28;20053;-70
2022/11/20 10:14:58;;;;;;;23.63;15.00;;;4.60;99.90;;;;;;5026131;28;20048;-70
2022/11/20 10:18:13;;;;;;;25.13;15.07;;;4.70;99.90;;;;;;5022292;28;20041;-70
2022/11/20 10:20:49;;;;;;;25.75;15.45;;;4.70;99.90;;;;;;5019328;28;20132;-70
2022/11/20 10:23:25;;;;;;;25.30;15.55;;;4.80;99.90;;;;;;5017123;28;20128;-71
2022/11/20 10:26:21;;;;;;;25.02;15.25;;;4.80;99.90;;;;;;5026245;28;20057;-70
2022/11/20 10:29:06;;;;;;;26.90;16.23;;;4.80;99.90;;;;;;5029390;28;20469;-70
2022/11/20 10:31:40;;;;;;;28.05;15.73;;;4.90;99.90;;;;;;5023802;28;20053;-69
2022/11/20 10:34:53;;;;;;;25.75;16.40;;;4.80;99.90;;;;;;5024922;28;20029;-70
2022/11/20 10:37:26;;;;;;;23.85;15.82;;;4.80;99.90;;;;;;5005212;28;20504;-68
2022/11/20 10:40:00;;;;;;;28.92;16.52;;;4.80;99.90;;;;;;5014920;28;20041;-69
2022/11/20 10:42:56;;;;;;;28.13;16.02;;;4.80;99.90;;;;;;5017393;28;20500;-70
2022/11/20 10:45:23;;;;;;;24.10;15.70;;;4.70;99.90;;;;;;5015791;28;20077;-70
2022/11/20 10:48:00;;;;;;;30.27;18.35;;;4.70;99.90;;;;;;5016522;28;20396;-69
2022/11/20 10:50:30;;;;;;;36.40;21.08;;;4.70;99.90;;;;;;5025882;28;20053;-68
2022/11/20 10:53:28;;;;;;;29.70;18.10;;;4.70;99.90;;;;;;5019338;28;20049;-69
2022/11/20 10:56:07;;;;;;;28.27;16.35;;;4.70;99.90;;;;;;5020089;28;20057;-68
2022/11/20 10:58:55;;;;;;;25.48;16.73;;;4.80;99.90;;;;;;5021874;28;20038;-70
2022/11/20 11:01:23;;;;;;;28.13;17.00;;;4.90;99.90;;;;;;5020332;28;20077;-68
2022/11/20 11:03:57;;;;;;;27.58;17.02;;;4.90;99.90;;;;;;5021956;28;20057;-71
2022/11/20 11:06:34;;;;;;;29.05;17.55;;;4.90;99.90;;;;;;5025789;28;20568;-69
2022/11/20 11:09:15;;;;;;;31.08;17.27;;;4.90;99.90;;;;;;5028288;28;20076;-68
2022/11/20 11:11:43;;;;;;;23.85;13.95;;;5.10;99.90;;;;;;5022402;28;20732;-68
2022/11/20 11:14:14;;;;;;;22.02;14.32;;;5.10;99.90;;;;;;4994268;28;20041;-69
2022/11/20 11:16:53;;;;;;;23.98;14.60;;;5.10;99.90;;;;;;5017896;28;20042;-70
2022/11/20 11:19:21;;;;;;;29.98;16.88;;;5.20;99.90;;;;;;5020663;28;20053;-67
2022/11/20 11:21:54;;;;;;;29.98;18.02;;;5.30;99.90;;;;;;5006338;28;20527;-69
2022/11/20 11:24:29;;;;;;;33.00;18.85;;;5.20;99.90;;;;;;5033233;28;20041;-68
2022/11/20 11:27:17;;;;;;;24.98;15.15;;;5.10;99.90;;;;;;5015575;28;20492;-68
2022/11/20 11:29:46;;;;;;;25.30;14.52;;;4.60;99.90;;;;;;5027763;28;20575;-69
2022/11/20 11:32:15;;;;;;;22.52;13.25;;;4.20;99.90;;;;;;5009892;28;20053;-70
2022/11/20 11:34:42;;;;;;;19.17;11.57;;;3.80;99.90;;;;;;5004790;28;20417;-70
2022/11/20 11:37:34;;;;;;;21.23;12.57;;;3.80;99.90;;;;;;5024522;28;20046;-68
2022/11/20 11:40:03;;;;;;;;;;;3.90;99.90;;;;;;5021068;28;20358;-69
2022/11/20 11:42:59;;;;;;;18.63;10.98;;;3.90;99.90;;;;;;5008890;28;20229;-69
2022/11/20 11:45:27;;;;;;;17.85;10.48;;;4.10;99.90;;;;;;5012069;28;20531;-68
2022/11/20 11:47:58;;;;;;;18.02;10.10;;;4.20;99.90;;;;;;5003943;28;20049;-70
2022/11/20 11:50:27;;;;;;;16.50;9.30;;;4.30;99.90;;;;;;5024090;28;20116;-69
2022/11/20 11:53:01;;;;;;;15.63;9.50;;;4.40;99.90;;;;;;5021049;28;20065;-69
2022/11/20 11:55:45;;;;;;;17.25;10.40;;;4.30;99.90;;;;;;5012937;28;20037;-69
2022/11/20 11:58:42;;;;;;;19.30;10.02;;;4.40;99.90;;;;;;5016206;28;20056;-68
2022/11/20 12:01:32;;;;;;;15.43;9.52;;;4.20;99.90;;;;;;5024008;28;20037;-68
2022/11/20 12:04:41;;;;;;;13.65;8.43;;;4.40;99.90;;;;;;5027781;28;20408;-68
2022/11/20 12:07:19;;;;;;;18.33;11.20;;;4.80;99.90;;;;;;5006516;28;20550;-68
2022/11/20 12:10:17;;;;;;;18.27;11.10;;;4.80;99.90;;;;;;4981318;28;20122;-68
2022/11/20 12:13:07;;;;;;;17.05;10.60;;;5.00;99.90;;;;;;5006486;28;20464;-69
2022/11/20 12:15:35;;;;;;;18.27;10.52;;;5.00;99.90;;;;;;5003446;28;20404;-69
2022/11/20 12:18:13;;;;;;;20.33;11.25;;;5.00;99.90;;;;;;4971142;28;20150;-69
2022/11/20 12:21:10;;;;;;;17.80;10.50;;;5.00;99.90;;;;;;4988911;28;20080;-69
2022/11/20 12:23:52;;;;;;;17.08;10.68;;;4.90;99.90;;;;;;4997009;28;20080;-69
2022/11/20 12:26:40;;;;;;;17.42;10.77;;;4.80;99.90;;;;;;4999703;28;20042;-69
2022/11/20 12:29:17;;;;;;;18.40;10.63;;;4.70;99.90;;;;;;5006642;28;20199;-70
2022/11/20 12:32:03;;;;;;;16.70;10.55;;;4.60;99.90;;;;;;4990677;28;20496;-69
2022/11/20 12:35:00;;;;;;;16.23;10.43;;;4.50;99.90;;;;;;5006210;28;20053;-69
2022/11/20 12:37:36;;;;;;;14.25;9.30;;;4.40;99.90;;;;;;4988175;28;20100;-70
2022/11/20 12:40:28;;;;;;;15.82;9.77;;;4.50;99.90;;;;;;4989565;28;20089;-68
2022/11/20 12:46:16;;;;;;;16.95;9.32;;;4.50;99.90;;;;;;4997481;28;20507;-68
2022/11/20 12:49:13;;;;;;;16.75;10.23;;;4.60;99.90;;;;;;4990614;28;20050;-68
2022/11/20 12:52:21;;;;;;;14.05;8.80;;;4.70;99.90;;;;;;4987655;28;20058;-68
2022/11/20 12:55:03;;;;;;;14.50;9.10;;;4.50;99.90;;;;;;4991156;28;20046;-69
2022/11/20 12:57:49;;;;;;;13.45;8.32;;;4.50;99.90;;;;;;5007225;28;20538;-68
2022/11/20 13:00:21;;;;;;;13.82;8.38;;;4.40;99.90;;;;;;4990534;28;20042;-72
2022/11/20 13:03:16;;;;;;;14.63;9.20;;;4.40;99.90;;;;;;5007219;28;20053;-72
2022/11/20 13:06:08;;;;;;;15.95;9.68;;;4.40;99.90;;;;;;4990962;28;20062;-72
2022/11/20 13:08:40;;;;;;;17.23;10.10;;;4.40;99.90;;;;;;5006349;28;20052;-73
2022/11/20 13:11:28;;;;;;;17.65;10.05;;;4.30;99.90;;;;;;5007084;28;20391;-73
2022/11/20 13:14:41;;;;;;;18.45;10.60;;;4.40;99.90;;;;;;4991452;28;20073;-72